createdAt,value
2023-03-20T00:00:38.226Z,100042.84
2023-03-20T00:05:39.636Z,100046.41
2023-03-20T00:10:42.218Z,100054.97
2023-03-20T00:15:43.975Z,100065.41
2023-03-20T00:20:46.291Z,100061.28
2023-03-20T00:25:47.716Z,100061.50
2023-03-20T00:30:49.087Z,100058.31
2023-03-20T00:35:50.467Z,100054.88
2023-03-20T00:40:52.430Z,100053.91
2023-03-20T00:45:53.808Z,100053.41
2023-03-20T00:50:55.501Z,100060.22
2023-03-20T00:55:56.882Z,100062.59
2023-03-20T01:00:58.312Z,100049.75
2023-03-20T01:05:59.797Z,100060.34
2023-03-20T01:11:01.241Z,100054.38
2023-03-20T01:16:02.708Z,100052.00
2023-03-20T01:21:04.267Z,100049.28
2023-03-20T01:26:18.407Z,100047.84
2023-03-20T01:31:19.819Z,100039.31
2023-03-20T01:36:22.358Z,100048.31
2023-03-20T01:41:25.189Z,100046.53
2023-03-20T01:46:28.407Z,100042.72
2023-03-20T01:51:32.764Z,100049.28
2023-03-20T01:56:38.163Z,100044.88
2023-03-20T02:01:39.820Z,100049.06
2023-03-20T02:06:41.692Z,100043.38
2023-03-20T02:11:43.064Z,100042.72
2023-03-20T02:16:44.474Z,100046.06
2023-03-20T02:22:13.898Z,100042.72
2023-03-20T02:27:22.503Z,100045.09
2023-03-20T02:32:48.169Z,100039.91
2023-03-20T02:38:08.767Z,100045.34
2023-03-20T02:43:47.033Z,100045.72
2023-03-20T02:49:15.511Z,100040.47
2023-03-20T02:54:38.703Z,100051.41
2023-03-20T02:59:41.725Z,100051.56
2023-03-20T03:04:54.905Z,100055.44
2023-03-20T03:10:27.184Z,100046.78
2023-03-20T03:15:34.518Z,100039.50
2023-03-20T03:20:39.377Z,100052.09
2023-03-20T03:25:40.795Z,100044.28
2023-03-20T03:30:42.183Z,100042.28
2023-03-20T03:35:43.681Z,100034.16
2023-03-20T03:41:23.852Z,100038.91
2023-03-20T03:46:45.697Z,100035.69
2023-03-20T03:51:49.216Z,100043.47
2023-03-20T03:56:50.595Z,100039.63
2023-03-20T04:01:52.377Z,100044.88
2023-03-20T04:06:53.793Z,100049.38
2023-03-20T04:11:55.200Z,100046.38
2023-03-20T04:16:56.585Z,100042.22
2023-03-20T04:21:57.971Z,100047.84
2023-03-20T04:26:59.379Z,100051.03
2023-03-20T04:32:00.782Z,100048.09
2023-03-20T04:37:02.180Z,100046.28
2023-03-20T04:42:04.303Z,100049.38
2023-03-20T04:47:06.445Z,100047.69
2023-03-20T04:52:07.955Z,100053.56
2023-03-20T04:57:09.329Z,100054.88
2023-03-20T05:02:14.735Z,100062.31
2023-03-20T05:07:16.129Z,100065.75
2023-03-20T05:12:17.528Z,100061.72
2023-03-20T05:17:19.618Z,100075.03
2023-03-20T05:22:21.001Z,100077.19
2023-03-20T05:27:22.396Z,100083.72
2023-03-20T05:32:23.807Z,100094.91
2023-03-20T05:37:25.197Z,100099.41
2023-03-20T05:42:26.576Z,100095.91
2023-03-20T05:47:27.946Z,100113.63
2023-03-20T05:52:29.321Z,100116.13
2023-03-20T05:57:30.994Z,100121.84
2023-03-20T06:02:32.424Z,100120.16
2023-03-20T06:07:33.811Z,100123.59
2023-03-20T06:12:35.466Z,100127.28
2023-03-20T06:17:37.913Z,100130.59
2023-03-20T06:22:39.325Z,100130.00
2023-03-20T06:27:40.733Z,100131.06
2023-03-20T06:32:42.447Z,100136.69
2023-03-20T06:37:43.935Z,100143.69
2023-03-20T06:42:45.361Z,100142.94
2023-03-20T06:47:47.202Z,100136.41
2023-03-20T06:52:48.592Z,100136.41
2023-03-20T06:57:50.060Z,100143.19
2023-03-20T07:02:51.492Z,100134.06
2023-03-20T07:07:52.937Z,100130.00
2023-03-20T07:12:54.874Z,100133.94
2023-03-20T07:17:56.400Z,100132.13
2023-03-20T07:22:57.784Z,100135.94
2023-03-20T07:27:59.259Z,100128.66
2023-03-20T07:33:00.715Z,100136.75
2023-03-20T07:38:02.328Z,100146.03
2023-03-20T07:43:03.718Z,100151.63
2023-03-20T07:48:05.526Z,100146.84
2023-03-20T07:53:07.762Z,100155.78
2023-03-20T07:58:09.174Z,100163.97
2023-03-20T08:03:10.844Z,100165.63
2023-03-20T08:08:12.355Z,100171.22
2023-03-20T08:13:13.906Z,100164.09
2023-03-20T08:18:15.337Z,100166.47
2023-03-20T08:23:20.082Z,100171.81
2023-03-20T08:28:24.027Z,100172.97
2023-03-20T08:33:28.224Z,100170.25
2023-03-20T08:38:29.595Z,100174.78
2023-03-20T08:43:31.369Z,100165.59
2023-03-20T08:48:32.871Z,100168.91
2023-03-20T08:53:35.374Z,100172.84
2023-03-20T08:58:36.748Z,100182.06
2023-03-20T09:03:38.174Z,100179.78
2023-03-20T09:08:39.855Z,100187.84
2023-03-20T09:13:41.351Z,100190.44
2023-03-20T09:18:42.740Z,100194.81
2023-03-20T09:23:44.173Z,100194.38
2023-03-20T09:28:45.591Z,100186.88
2023-03-20T09:33:46.975Z,100189.25
2023-03-20T09:38:48.401Z,100191.16
2023-03-20T09:44:07.715Z,100198.16
2023-03-20T09:49:23.203Z,100205.47
2023-03-20T09:54:53.087Z,100207.72
2023-03-20T09:59:57.590Z,100213.41
2023-03-20T10:04:58.967Z,100209.13
2023-03-20T10:10:00.425Z,100208.28
2023-03-20T10:15:19.555Z,100217.75
2023-03-20T10:20:29.238Z,100211.34
2023-03-20T10:25:52.207Z,100214.75
2023-03-20T10:31:29.892Z,100205.06
2023-03-20T10:36:43.279Z,100196.84
2023-03-20T10:41:51.154Z,100202.72
2023-03-20T10:46:53.449Z,100207.91
2023-03-20T10:51:56.484Z,100203.13
2023-03-20T10:56:59.593Z,100205.91
2023-03-20T11:02:01.260Z,100194.50
2023-03-20T11:07:37.910Z,100191.75
2023-03-20T11:12:49.020Z,100209.72
2023-03-20T11:17:54.700Z,100196.84
2023-03-20T11:22:59.814Z,100197.44
2023-03-20T11:28:21.067Z,100195.31
2023-03-20T11:33:22.472Z,100202.06
2023-03-20T11:38:23.864Z,100188.13
2023-03-20T11:43:26.929Z,100184.38
2023-03-20T11:48:38.993Z,100181.81
2023-03-20T11:53:49.075Z,100186.94
2023-03-20T11:59:06.617Z,100178.91
2023-03-20T12:04:11.159Z,100179.03
2023-03-20T12:09:26.343Z,100163.34
2023-03-20T12:14:32.961Z,100172.84
2023-03-20T12:19:34.356Z,100158.25
2023-03-20T12:24:42.159Z,100161.41
2023-03-20T12:29:55.777Z,100162.50
2023-03-20T12:35:07.369Z,100165.47
2023-03-20T12:40:18.712Z,100156.13
2023-03-20T12:45:25.088Z,100152.22
2023-03-20T12:50:28.822Z,100150.78
2023-03-20T12:55:48.396Z,100143.16
2023-03-20T13:01:20.601Z,100143.91
2023-03-20T13:06:49.435Z,100145.97
2023-03-20T13:12:01.649Z,100135.69
2023-03-20T13:17:28.805Z,100134.72
2023-03-20T13:22:58.169Z,100128.56
2023-03-20T13:28:21.752Z,100123.94
2023-03-20T13:33:50.970Z,100131.41
2023-03-20T13:38:59.264Z,100115.31
2023-03-20T13:44:01.864Z,100114.38
2023-03-20T13:49:13.400Z,100108.28
2023-03-20T13:54:20.730Z,100102.25
2023-03-20T13:59:49.131Z,100110.53
2023-03-20T14:04:52.953Z,100111.50
2023-03-20T14:09:54.469Z,100107.38
2023-03-20T14:14:56.511Z,100108.22
2023-03-20T14:19:57.981Z,100109.22
2023-03-20T14:25:00.599Z,100105.41
2023-03-20T14:30:30.127Z,100105.13
2023-03-20T14:35:32.074Z,100109.47
2023-03-20T14:40:34.970Z,100116.00
2023-03-20T14:45:42.644Z,100106.47
2023-03-20T14:50:46.896Z,100107.53
2023-03-20T14:55:51.145Z,100108.72
2023-03-20T15:00:52.586Z,100105.72
2023-03-20T15:05:56.774Z,100115.44
2023-03-20T15:10:59.423Z,100113.91
2023-03-20T15:16:06.930Z,100124.13
2023-03-20T15:21:16.328Z,100112.22
2023-03-20T15:26:18.712Z,100112.22
2023-03-20T15:31:24.557Z,100107.25
2023-03-20T15:36:28.049Z,100101.53
2023-03-20T15:41:31.596Z,100099.78
2023-03-20T15:46:33.093Z,100107.69
2023-03-20T15:51:34.475Z,100095.81
2023-03-20T15:56:36.410Z,100101.78
2023-03-20T16:01:37.869Z,100108.00
2023-03-20T16:06:46.187Z,100106.94
2023-03-20T16:11:49.587Z,100105.84
2023-03-20T16:16:51.468Z,100109.41
2023-03-20T16:22:00.455Z,100118.78
2023-03-20T16:27:08.034Z,100107.34
2023-03-20T16:32:34.082Z,100111.31
2023-03-20T16:37:43.348Z,100106.09
2023-03-20T16:42:45.071Z,100105.41
2023-03-20T16:47:46.543Z,100109.13
2023-03-20T16:52:52.333Z,100099.78
2023-03-20T16:57:55.210Z,100097.63
2023-03-20T17:03:16.615Z,100115.97
2023-03-20T17:08:25.974Z,100101.78
2023-03-20T17:13:27.440Z,100098.94
2023-03-20T17:18:28.923Z,100103.75
2023-03-20T17:23:30.349Z,100106.16
2023-03-20T17:28:34.548Z,100104.97
2023-03-20T17:33:36.358Z,100108.97
2023-03-20T17:38:37.756Z,100105.53
2023-03-20T17:43:39.197Z,100100.28
2023-03-20T17:48:40.593Z,100099.94
2023-03-20T17:53:41.973Z,100094.66
2023-03-20T17:58:46.136Z,100100.75
2023-03-20T18:03:47.519Z,100094.09
2023-03-20T18:08:48.906Z,100102.41
2023-03-20T18:13:50.342Z,100101.59
2023-03-20T18:18:52.414Z,100092.19
2023-03-20T18:23:53.793Z,100098.66
2023-03-20T18:28:55.495Z,100094.41
2023-03-20T18:33:57.021Z,100097.63
2023-03-20T18:38:58.585Z,100100.09
2023-03-20T18:44:00.011Z,100100.22
2023-03-20T18:49:01.436Z,100102.22
2023-03-20T18:54:02.824Z,100105.69
2023-03-20T18:59:06.457Z,100114.63
2023-03-20T19:04:08.005Z,100115.09
2023-03-20T19:09:11.713Z,100121.50
2023-03-20T19:14:14.023Z,100129.03
2023-03-20T19:19:15.569Z,100119.59
2023-03-20T19:24:19.301Z,100113.06
2023-03-20T19:29:20.678Z,100113.56
2023-03-20T19:35:00.828Z,100108.00
2023-03-20T19:39:43.423Z,100102.53
2023-03-20T19:44:44.960Z,100101.56
2023-03-20T19:49:46.408Z,100102.03
2023-03-20T19:55:01.822Z,100097.06
2023-03-20T20:05:36.736Z,100093.50
2023-03-20T20:10:43.280Z,100082.44
2023-03-20T20:15:45.291Z,100082.56
2023-03-20T20:21:32.021Z,100084.06
2023-03-20T20:26:09.433Z,100083.97
2023-03-20T20:31:10.867Z,100074.91
2023-03-20T20:37:20.337Z,100080.28
2023-03-20T20:41:33.895Z,100083.72
2023-03-20T20:46:35.287Z,100085.03
2023-03-20T20:51:36.697Z,100083.22
2023-03-20T20:56:38.084Z,100079.81
2023-03-20T21:01:39.521Z,100079.81
2023-03-20T21:07:11.566Z,100077.09
2023-03-20T21:12:02.741Z,100084.31
2023-03-20T21:17:05.752Z,100089.84
2023-03-20T21:22:08.119Z,100089.44
2023-03-20T21:27:12.410Z,100084.31
2023-03-20T21:32:15.832Z,100086.31
2023-03-20T21:42:39.640Z,100091.22
2023-03-20T21:54:13.612Z,100095.66
2023-03-20T21:59:02.916Z,100102.38
2023-03-20T22:04:57.621Z,100106.78
2023-03-20T22:31:28.504Z,100113.97
2023-03-20T22:36:46.881Z,100110.56
2023-03-20T22:46:46.236Z,100124.25
2023-03-20T22:52:07.806Z,100124.63
2023-03-20T22:57:09.555Z,100117.53
2023-03-20T23:02:11.362Z,100113.56
2023-03-20T23:07:12.750Z,100104.88
2023-03-20T23:12:14.190Z,100098.22
2023-03-20T23:17:15.588Z,100098.72
2023-03-20T23:22:16.970Z,100101.94
2023-03-20T23:27:19.359Z,100108.31
2023-03-20T23:32:20.766Z,100107.63
2023-03-20T23:37:22.136Z,100108.44
2023-03-20T23:42:30.375Z,100102.63
2023-03-20T23:47:43.860Z,100099.91
2023-03-20T23:52:57.218Z,100101.13
2023-03-20T23:58:02.695Z,100094.06
